Sunset Pines, Pennsylvania
Current Conditions -  °F | °C
As of 8:54 AM on Tuesday 27 Jan 2015 (Local Time) from KIPT Reporting Station
Overcast Overcast  
Wind Chill: 10°   Ceiling: 10000
Heat Index: 21°   Visibility: 10mi
Dew Point: 12°   Wind: 10mph
Humidity: 68%   Direction: 280°W
Pressure: 29.85"   Gusts: NA
Location:  41.2558°N, 77.4987°W
Report Text: KIPT 271354Z 28009KT 10SM OVC100 M06/M11 A2985 RMK AO2 SLP116 T10611111
Loading
Personal Weather Stations






























Interactive Weather Map New forecast layout! Learn more

10-Day Weather Forecast

Advertisements
Track Severe Weather on mobile